sensor_id;sensor_type;location;lat;lon;timestamp;P1;durP1;ratioP1;P2;durP2;ratioP2
15261;SDS011;7733;51.554;13.590;2023-08-20T00:00:29;10.93;;;9.97;;
15261;SDS011;7733;51.554;13.590;2023-08-20T00:02:58;10.73;;;9.70;;
15261;SDS011;7733;51.554;13.590;2023-08-20T00:05:32;9.93;;;9.37;;
15261;SDS011;7733;51.554;13.590;2023-08-20T00:07:58;10.33;;;9.73;;
15261;SDS011;7733;51.554;13.590;2023-08-20T00:10:24;10.33;;;9.53;;
15261;SDS011;7733;51.554;13.590;2023-08-20T00:12:49;10.87;;;10.00;;
15261;SDS011;7733;51.554;13.590;2023-08-20T00:15:15;11.10;;;10.30;;
15261;SDS011;7733;51.554;13.590;2023-08-20T00:17:41;11.57;;;10.67;;
15261;SDS011;7733;51.554;13.590;2023-08-20T00:20:08;10.87;;;10.10;;
15261;SDS011;7733;51.554;13.590;2023-08-20T00:22:38;10.73;;;10.03;;
15261;SDS011;7733;51.554;13.590;2023-08-20T00:25:07;11.03;;;10.17;;
15261;SDS011;7733;51.554;13.590;2023-08-20T00:27:34;12.30;;;11.43;;
15261;SDS011;7733;51.554;13.590;2023-08-20T00:29:59;11.07;;;10.07;;
15261;SDS011;7733;51.554;13.590;2023-08-20T00:32:25;10.73;;;10.03;;
15261;SDS011;7733;51.554;13.590;2023-08-20T00:34:51;10.40;;;9.67;;
15261;SDS011;7733;51.554;13.590;2023-08-20T00:37:17;10.77;;;10.07;;
15261;SDS011;7733;51.554;13.590;2023-08-20T00:39:43;11.23;;;10.53;;
15261;SDS011;7733;51.554;13.590;2023-08-20T00:42:09;11.70;;;10.83;;
15261;SDS011;7733;51.554;13.590;2023-08-20T00:44:35;12.03;;;11.23;;
15261;SDS011;7733;51.554;13.590;2023-08-20T00:47:01;11.73;;;11.03;;
15261;SDS011;7733;51.554;13.590;2023-08-20T00:49:29;12.10;;;11.30;;
15261;SDS011;7733;51.554;13.590;2023-08-20T00:51:57;13.17;;;12.00;;
15261;SDS011;7733;51.554;13.590;2023-08-20T00:54:23;12.20;;;11.37;;
15261;SDS011;7733;51.554;13.590;2023-08-20T00:56:50;12.40;;;11.50;;
15261;SDS011;7733;51.554;13.590;2023-08-20T00:59:16;12.23;;;11.43;;
15261;SDS011;7733;51.554;13.590;2023-08-20T01:01:43;12.67;;;11.77;;
15261;SDS011;7733;51.554;13.590;2023-08-20T01:04:09;12.47;;;11.60;;
15261;SDS011;7733;51.554;13.590;2023-08-20T01:09:23;12.27;;;11.37;;
15261;SDS011;7733;51.554;13.590;2023-08-20T01:12:28;11.93;;;11.13;;
15261;SDS011;7733;51.554;13.590;2023-08-20T01:14:56;10.53;;;9.60;;
15261;SDS011;7733;51.554;13.590;2023-08-20T01:17:22;10.83;;;10.13;;
15261;SDS011;7733;51.554;13.590;2023-08-20T01:19:48;11.03;;;10.33;;
15261;SDS011;7733;51.554;13.590;2023-08-20T01:30:55;11.37;;;10.63;;
15261;SDS011;7733;51.554;13.590;2023-08-20T01:33:24;11.10;;;10.50;;
15261;SDS011;7733;51.554;13.590;2023-08-20T01:35:51;11.67;;;10.87;;
15261;SDS011;7733;51.554;13.590;2023-08-20T01:38:18;11.40;;;10.63;;
15261;SDS011;7733;51.554;13.590;2023-08-20T01:40:45;11.97;;;11.20;;
15261;SDS011;7733;51.554;13.590;2023-08-20T01:43:10;11.37;;;10.77;;
15261;SDS011;7733;51.554;13.590;2023-08-20T01:45:36;11.27;;;10.47;;
15261;SDS011;7733;51.554;13.590;2023-08-20T01:48:02;10.70;;;10.07;;
15261;SDS011;7733;51.554;13.590;2023-08-20T01:50:32;10.93;;;10.13;;
15261;SDS011;7733;51.554;13.590;2023-08-20T01:52:59;10.50;;;9.90;;
15261;SDS011;7733;51.554;13.590;2023-08-20T01:55:26;10.97;;;10.17;;
15261;SDS011;7733;51.554;13.590;2023-08-20T01:57:51;10.80;;;10.00;;
15261;SDS011;7733;51.554;13.590;2023-08-20T02:00:17;11.10;;;10.20;;
15261;SDS011;7733;51.554;13.590;2023-08-20T02:02:43;11.50;;;10.50;;
15261;SDS011;7733;51.554;13.590;2023-08-20T02:05:09;10.70;;;9.90;;
15261;SDS011;7733;51.554;13.590;2023-08-20T02:07:35;10.37;;;9.67;;
15261;SDS011;7733;51.554;13.590;2023-08-20T02:10:01;10.43;;;9.80;;
15261;SDS011;7733;51.554;13.590;2023-08-20T02:12:28;11.10;;;10.30;;
15261;SDS011;7733;51.554;13.590;2023-08-20T02:14:53;9.73;;;9.20;;
15261;SDS011;7733;51.554;13.590;2023-08-20T02:17:19;9.73;;;9.20;;
15261;SDS011;7733;51.554;13.590;2023-08-20T02:19:45;11.43;;;10.63;;
15261;SDS011;7733;51.554;13.590;2023-08-20T02:22:10;10.60;;;9.70;;
15261;SDS011;7733;51.554;13.590;2023-08-20T02:24:36;12.03;;;11.03;;
15261;SDS011;7733;51.554;13.590;2023-08-20T02:27:02;12.40;;;11.53;;
15261;SDS011;7733;51.554;13.590;2023-08-20T02:29:28;12.37;;;11.47;;
15261;SDS011;7733;51.554;13.590;2023-08-20T02:31:54;11.10;;;10.50;;
15261;SDS011;7733;51.554;13.590;2023-08-20T02:34:20;11.73;;;10.83;;
15261;SDS011;7733;51.554;13.590;2023-08-20T02:36:48;11.07;;;10.27;;
15261;SDS011;7733;51.554;13.590;2023-08-20T02:39:14;11.43;;;10.60;;
15261;SDS011;7733;51.554;13.590;2023-08-20T02:41:41;11.90;;;11.10;;
15261;SDS011;7733;51.554;13.590;2023-08-20T02:44:07;11.57;;;10.87;;
15261;SDS011;7733;51.554;13.590;2023-08-20T02:46:33;11.73;;;10.83;;
15261;SDS011;7733;51.554;13.590;2023-08-20T02:48:59;12.07;;;11.37;;
15261;SDS011;7733;51.554;13.590;2023-08-20T02:51:25;12.17;;;11.17;;
15261;SDS011;7733;51.554;13.590;2023-08-20T02:53:51;12.87;;;11.83;;
15261;SDS011;7733;51.554;13.590;2023-08-20T02:56:17;11.23;;;10.53;;
15261;SDS011;7733;51.554;13.590;2023-08-20T02:58:42;11.23;;;10.43;;
15261;SDS011;7733;51.554;13.590;2023-08-20T03:01:17;12.03;;;11.20;;
15261;SDS011;7733;51.554;13.590;2023-08-20T03:03:48;11.97;;;11.17;;
15261;SDS011;7733;51.554;13.590;2023-08-20T03:06:14;12.27;;;11.33;;
15261;SDS011;7733;51.554;13.590;2023-08-20T03:08:41;11.63;;;10.93;;
15261;SDS011;7733;51.554;13.590;2023-08-20T03:11:06;11.60;;;10.90;;
15261;SDS011;7733;51.554;13.590;2023-08-20T03:13:32;11.93;;;11.03;;
15261;SDS011;7733;51.554;13.590;2023-08-20T03:15:58;11.57;;;10.87;;
15261;SDS011;7733;51.554;13.590;2023-08-20T03:18:24;11.63;;;10.83;;
15261;SDS011;7733;51.554;13.590;2023-08-20T03:20:50;11.50;;;10.80;;
15261;SDS011;7733;51.554;13.590;2023-08-20T03:23:15;12.17;;;11.13;;
15261;SDS011;7733;51.554;13.590;2023-08-20T03:25:41;11.80;;;11.00;;
15261;SDS011;7733;51.554;13.590;2023-08-20T03:28:07;11.63;;;10.83;;
15261;SDS011;7733;51.554;13.590;2023-08-20T03:30:32;11.37;;;10.47;;
15261;SDS011;7733;51.554;13.590;2023-08-20T03:32:58;11.50;;;10.50;;
15261;SDS011;7733;51.554;13.590;2023-08-20T03:35:24;10.70;;;10.00;;
15261;SDS011;7733;51.554;13.590;2023-08-20T03:37:50;9.50;;;9.00;;
15261;SDS011;7733;51.554;13.590;2023-08-20T03:40:16;10.50;;;9.73;;
15261;SDS011;7733;51.554;13.590;2023-08-20T03:42:43;10.27;;;9.47;;
15261;SDS011;7733;51.554;13.590;2023-08-20T03:45:09;10.17;;;9.27;;
15261;SDS011;7733;51.554;13.590;2023-08-20T03:47:35;9.73;;;9.13;;
15261;SDS011;7733;51.554;13.590;2023-08-20T03:50:01;9.50;;;8.70;;
15261;SDS011;7733;51.554;13.590;2023-08-20T03:52:29;9.43;;;8.73;;
15261;SDS011;7733;51.554;13.590;2023-08-20T03:54:54;9.23;;;8.63;;
15261;SDS011;7733;51.554;13.590;2023-08-20T03:57:20;8.03;;;7.53;;
15261;SDS011;7733;51.554;13.590;2023-08-20T03:59:47;8.83;;;8.30;;
15261;SDS011;7733;51.554;13.590;2023-08-20T04:02:13;8.50;;;7.83;;
15261;SDS011;7733;51.554;13.590;2023-08-20T04:04:39;7.87;;;7.37;;
15261;SDS011;7733;51.554;13.590;2023-08-20T04:07:06;7.50;;;7.03;;
15261;SDS011;7733;51.554;13.590;2023-08-20T04:09:32;7.97;;;7.23;;
15261;SDS011;7733;51.554;13.590;2023-08-20T04:11:59;7.27;;;6.70;;
15261;SDS011;7733;51.554;13.590;2023-08-20T04:14:24;7.57;;;7.07;;
15261;SDS011;7733;51.554;13.590;2023-08-20T04:16:50;7.00;;;6.50;;
15261;SDS011;7733;51.554;13.590;2023-08-20T04:19:16;6.90;;;6.50;;
15261;SDS011;7733;51.554;13.590;2023-08-20T04:21:42;7.60;;;7.00;;
15261;SDS011;7733;51.554;13.590;2023-08-20T04:24:07;7.23;;;6.67;;
15261;SDS011;7733;51.554;13.590;2023-08-20T04:26:33;7.00;;;6.60;;
15261;SDS011;7733;51.554;13.590;2023-08-20T04:28:59;6.73;;;6.33;;
15261;SDS011;7733;51.554;13.590;2023-08-20T04:31:25;6.70;;;6.20;;
15261;SDS011;7733;51.554;13.590;2023-08-20T04:33:51;7.63;;;6.63;;
15261;SDS011;7733;51.554;13.590;2023-08-20T04:36:16;6.97;;;6.37;;
15261;SDS011;7733;51.554;13.590;2023-08-20T04:38:42;6.40;;;6.10;;
15261;SDS011;7733;51.554;13.590;2023-08-20T04:41:08;7.80;;;7.03;;
15261;SDS011;7733;51.554;13.590;2023-08-20T04:43:33;7.37;;;6.67;;
15261;SDS011;7733;51.554;13.590;2023-08-20T04:45:59;7.97;;;6.90;;
15261;SDS011;7733;51.554;13.590;2023-08-20T04:48:25;6.97;;;6.37;;
15261;SDS011;7733;51.554;13.590;2023-08-20T04:50:51;7.40;;;6.83;;
15261;SDS011;7733;51.554;13.590;2023-08-20T04:53:16;6.90;;;6.40;;
15261;SDS011;7733;51.554;13.590;2023-08-20T04:55:42;7.33;;;6.73;;
15261;SDS011;7733;51.554;13.590;2023-08-20T04:58:08;7.20;;;6.70;;
15261;SDS011;7733;51.554;13.590;2023-08-20T05:00:34;6.97;;;6.50;;
15261;SDS011;7733;51.554;13.590;2023-08-20T05:03:00;7.40;;;6.70;;
15261;SDS011;7733;51.554;13.590;2023-08-20T05:05:26;7.70;;;6.97;;
15261;SDS011;7733;51.554;13.590;2023-08-20T05:07:52;7.70;;;7.20;;
15261;SDS011;7733;51.554;13.590;2023-08-20T05:10:17;7.30;;;6.80;;
15261;SDS011;7733;51.554;13.590;2023-08-20T05:12:43;7.70;;;7.10;;
15261;SDS011;7733;51.554;13.590;2023-08-20T05:15:09;7.30;;;6.90;;
15261;SDS011;7733;51.554;13.590;2023-08-20T05:17:35;7.20;;;6.70;;
15261;SDS011;7733;51.554;13.590;2023-08-20T05:20:01;7.67;;;7.07;;
15261;SDS011;7733;51.554;13.590;2023-08-20T05:22:27;7.67;;;7.07;;
15261;SDS011;7733;51.554;13.590;2023-08-20T05:24:52;7.90;;;7.23;;
15261;SDS011;7733;51.554;13.590;2023-08-20T05:27:18;7.83;;;7.23;;
15261;SDS011;7733;51.554;13.590;2023-08-20T05:29:44;7.50;;;7.00;;
15261;SDS011;7733;51.554;13.590;2023-08-20T05:32:10;8.43;;;7.63;;
15261;SDS011;7733;51.554;13.590;2023-08-20T05:34:36;7.33;;;6.83;;
15261;SDS011;7733;51.554;13.590;2023-08-20T05:37:02;7.57;;;7.07;;
15261;SDS011;7733;51.554;13.590;2023-08-20T05:39:35;7.30;;;6.83;;
15261;SDS011;7733;51.554;13.590;2023-08-20T05:42:06;7.87;;;7.20;;
15261;SDS011;7733;51.554;13.590;2023-08-20T05:44:32;7.63;;;7.03;;
15261;SDS011;7733;51.554;13.590;2023-08-20T05:46:58;7.80;;;7.20;;
15261;SDS011;7733;51.554;13.590;2023-08-20T05:49:23;8.20;;;7.60;;
15261;SDS011;7733;51.554;13.590;2023-08-20T05:51:49;8.27;;;7.57;;
15261;SDS011;7733;51.554;13.590;2023-08-20T05:54:15;7.93;;;7.20;;
15261;SDS011;7733;51.554;13.590;2023-08-20T05:56:41;8.07;;;7.47;;
15261;SDS011;7733;51.554;13.590;2023-08-20T05:59:06;7.47;;;6.87;;
15261;SDS011;7733;51.554;13.590;2023-08-20T06:01:32;8.50;;;7.87;;
15261;SDS011;7733;51.554;13.590;2023-08-20T06:03:58;8.00;;;7.33;;
15261;SDS011;7733;51.554;13.590;2023-08-20T06:06:25;8.10;;;7.50;;
15261;SDS011;7733;51.554;13.590;2023-08-20T06:08:51;7.80;;;7.20;;
15261;SDS011;7733;51.554;13.590;2023-08-20T06:11:17;8.17;;;7.00;;
15261;SDS011;7733;51.554;13.590;2023-08-20T06:13:44;7.00;;;6.50;;
15261;SDS011;7733;51.554;13.590;2023-08-20T06:16:10;7.47;;;7.03;;
15261;SDS011;7733;51.554;13.590;2023-08-20T06:18:35;7.93;;;7.47;;
15261;SDS011;7733;51.554;13.590;2023-08-20T06:21:02;7.93;;;7.33;;
15261;SDS011;7733;51.554;13.590;2023-08-20T06:23:28;8.23;;;7.67;;
15261;SDS011;7733;51.554;13.590;2023-08-20T06:25:54;8.13;;;7.57;;
15261;SDS011;7733;51.554;13.590;2023-08-20T06:28:21;8.93;;;8.23;;
15261;SDS011;7733;51.554;13.590;2023-08-20T06:30:47;8.20;;;7.70;;
15261;SDS011;7733;51.554;13.590;2023-08-20T06:33:12;8.27;;;7.57;;
15261;SDS011;7733;51.554;13.590;2023-08-20T06:35:38;8.40;;;7.70;;
15261;SDS011;7733;51.554;13.590;2023-08-20T06:38:06;8.87;;;8.13;;
15261;SDS011;7733;51.554;13.590;2023-08-20T06:40:32;8.47;;;7.87;;
15261;SDS011;7733;51.554;13.590;2023-08-20T06:42:58;8.23;;;7.67;;
15261;SDS011;7733;51.554;13.590;2023-08-20T06:45:24;8.60;;;7.90;;
15261;SDS011;7733;51.554;13.590;2023-08-20T06:47:50;8.73;;;8.07;;
15261;SDS011;7733;51.554;13.590;2023-08-20T06:50:16;8.37;;;7.87;;
15261;SDS011;7733;51.554;13.590;2023-08-20T06:52:42;9.37;;;8.67;;
15261;SDS011;7733;51.554;13.590;2023-08-20T06:55:08;9.30;;;8.40;;
15261;SDS011;7733;51.554;13.590;2023-08-20T06:57:34;8.57;;;8.07;;
15261;SDS011;7733;51.554;13.590;2023-08-20T07:00:00;8.77;;;8.07;;
15261;SDS011;7733;51.554;13.590;2023-08-20T07:02:26;9.90;;;8.63;;
15261;SDS011;7733;51.554;13.590;2023-08-20T07:04:51;8.93;;;8.33;;
15261;SDS011;7733;51.554;13.590;2023-08-20T07:07:17;8.87;;;8.17;;
15261;SDS011;7733;51.554;13.590;2023-08-20T07:09:43;8.47;;;7.90;;
15261;SDS011;7733;51.554;13.590;2023-08-20T07:12:08;8.97;;;8.33;;
15261;SDS011;7733;51.554;13.590;2023-08-20T07:14:34;8.63;;;8.13;;
15261;SDS011;7733;51.554;13.590;2023-08-20T07:17:00;8.93;;;8.23;;
15261;SDS011;7733;51.554;13.590;2023-08-20T07:19:27;9.10;;;8.50;;
15261;SDS011;7733;51.554;13.590;2023-08-20T07:21:54;9.00;;;8.40;;
15261;SDS011;7733;51.554;13.590;2023-08-20T07:24:20;9.27;;;8.57;;
15261;SDS011;7733;51.554;13.590;2023-08-20T07:26:50;9.53;;;8.73;;
15261;SDS011;7733;51.554;13.590;2023-08-20T07:29:17;9.40;;;8.70;;
15261;SDS011;7733;51.554;13.590;2023-08-20T07:31:43;9.77;;;9.07;;
15261;SDS011;7733;51.554;13.590;2023-08-20T07:34:10;9.37;;;8.70;;
15261;SDS011;7733;51.554;13.590;2023-08-20T07:36:36;9.20;;;8.53;;
15261;SDS011;7733;51.554;13.590;2023-08-20T07:39:01;9.83;;;8.93;;
15261;SDS011;7733;51.554;13.590;2023-08-20T07:41:28;9.03;;;8.43;;
15261;SDS011;7733;51.554;13.590;2023-08-20T07:43:54;9.77;;;9.07;;
15261;SDS011;7733;51.554;13.590;2023-08-20T07:46:19;9.50;;;8.80;;
15261;SDS011;7733;51.554;13.590;2023-08-20T07:48:45;9.27;;;8.57;;
15261;SDS011;7733;51.554;13.590;2023-08-20T07:51:11;10.40;;;9.50;;
15261;SDS011;7733;51.554;13.590;2023-08-20T07:53:37;10.00;;;9.30;;
15261;SDS011;7733;51.554;13.590;2023-08-20T07:56:03;9.83;;;9.13;;
15261;SDS011;7733;51.554;13.590;2023-08-20T07:58:29;10.23;;;9.33;;
15261;SDS011;7733;51.554;13.590;2023-08-20T08:00:55;9.57;;;8.87;;
15261;SDS011;7733;51.554;13.590;2023-08-20T08:03:24;9.40;;;8.60;;
15261;SDS011;7733;51.554;13.590;2023-08-20T08:05:54;9.37;;;8.63;;
15261;SDS011;7733;51.554;13.590;2023-08-20T08:08:20;11.80;;;9.63;;
15261;SDS011;7733;51.554;13.590;2023-08-20T08:10:47;9.80;;;9.07;;
15261;SDS011;7733;51.554;13.590;2023-08-20T08:13:14;9.27;;;8.70;;
15261;SDS011;7733;51.554;13.590;2023-08-20T08:15:43;9.33;;;8.70;;
15261;SDS011;7733;51.554;13.590;2023-08-20T08:18:09;9.37;;;8.77;;
15261;SDS011;7733;51.554;13.590;2023-08-20T08:20:35;9.03;;;8.43;;
15261;SDS011;7733;51.554;13.590;2023-08-20T08:23:01;9.50;;;8.80;;
15261;SDS011;7733;51.554;13.590;2023-08-20T08:25:27;9.47;;;8.70;;
15261;SDS011;7733;51.554;13.590;2023-08-20T08:27:54;9.83;;;9.03;;
15261;SDS011;7733;51.554;13.590;2023-08-20T08:30:20;9.13;;;8.53;;
15261;SDS011;7733;51.554;13.590;2023-08-20T08:32:46;9.23;;;8.60;;
15261;SDS011;7733;51.554;13.590;2023-08-20T08:35:11;9.80;;;9.00;;
15261;SDS011;7733;51.554;13.590;2023-08-20T08:37:37;10.20;;;9.40;;
15261;SDS011;7733;51.554;13.590;2023-08-20T08:40:03;9.93;;;9.03;;
15261;SDS011;7733;51.554;13.590;2023-08-20T08:42:32;9.43;;;8.73;;
15261;SDS011;7733;51.554;13.590;2023-08-20T08:44:59;10.57;;;9.70;;
15261;SDS011;7733;51.554;13.590;2023-08-20T08:47:27;10.00;;;9.20;;
15261;SDS011;7733;51.554;13.590;2023-08-20T08:49:55;9.20;;;8.60;;
15261;SDS011;7733;51.554;13.590;2023-08-20T08:52:25;9.80;;;9.07;;
15261;SDS011;7733;51.554;13.590;2023-08-20T08:54:52;10.47;;;9.67;;
15261;SDS011;7733;51.554;13.590;2023-08-20T08:57:18;10.80;;;9.30;;
15261;SDS011;7733;51.554;13.590;2023-08-20T08:59:44;9.73;;;8.90;;
15261;SDS011;7733;51.554;13.590;2023-08-20T09:02:11;8.90;;;8.30;;
15261;SDS011;7733;51.554;13.590;2023-08-20T09:04:42;9.83;;;9.03;;
15261;SDS011;7733;51.554;13.590;2023-08-20T09:07:11;9.30;;;8.70;;
15261;SDS011;7733;51.554;13.590;2023-08-20T09:09:42;10.17;;;9.47;;
15261;SDS011;7733;51.554;13.590;2023-08-20T09:12:13;9.70;;;9.00;;
15261;SDS011;7733;51.554;13.590;2023-08-20T09:14:47;10.13;;;9.40;;
15261;SDS011;7733;51.554;13.590;2023-08-20T09:17:16;10.30;;;9.60;;
15261;SDS011;7733;51.554;13.590;2023-08-20T09:19:43;10.63;;;9.73;;
15261;SDS011;7733;51.554;13.590;2023-08-20T09:22:14;10.13;;;9.43;;
15261;SDS011;7733;51.554;13.590;2023-08-20T09:24:41;9.57;;;8.87;;
15261;SDS011;7733;51.554;13.590;2023-08-20T09:27:11;9.07;;;8.37;;
15261;SDS011;7733;51.554;13.590;2023-08-20T09:29:48;9.77;;;9.17;;
15261;SDS011;7733;51.554;13.590;2023-08-20T09:32:23;10.23;;;9.50;;
15261;SDS011;7733;51.554;13.590;2023-08-20T09:34:52;8.83;;;8.23;;
15261;SDS011;7733;51.554;13.590;2023-08-20T09:37:20;9.50;;;8.77;;
15261;SDS011;7733;51.554;13.590;2023-08-20T09:39:48;9.13;;;8.00;;
15261;SDS011;7733;51.554;13.590;2023-08-20T09:42:15;8.97;;;8.27;;
15261;SDS011;7733;51.554;13.590;2023-08-20T09:44:42;8.47;;;7.97;;
15261;SDS011;7733;51.554;13.590;2023-08-20T09:47:10;8.23;;;7.70;;
15261;SDS011;7733;51.554;13.590;2023-08-20T09:49:42;8.43;;;7.73;;
15261;SDS011;7733;51.554;13.590;2023-08-20T09:52:16;8.10;;;7.53;;
15261;SDS011;7733;51.554;13.590;2023-08-20T10:00:07;7.77;;;7.23;;
15261;SDS011;7733;51.554;13.590;2023-08-20T10:02:35;7.47;;;7.03;;
15261;SDS011;7733;51.554;13.590;2023-08-20T10:05:02;8.03;;;7.43;;
15261;SDS011;7733;51.554;13.590;2023-08-20T10:07:31;8.20;;;7.60;;
15261;SDS011;7733;51.554;13.590;2023-08-20T10:09:57;8.20;;;7.50;;
15261;SDS011;7733;51.554;13.590;2023-08-20T10:12:28;8.03;;;7.33;;
15261;SDS011;7733;51.554;13.590;2023-08-20T10:14:56;7.80;;;7.13;;
15261;SDS011;7733;51.554;13.590;2023-08-20T10:17:23;7.20;;;6.60;;
15261;SDS011;7733;51.554;13.590;2023-08-20T10:19:52;7.00;;;6.53;;
15261;SDS011;7733;51.554;13.590;2023-08-20T10:22:19;7.20;;;6.60;;
15261;SDS011;7733;51.554;13.590;2023-08-20T10:24:52;10.73;;;6.70;;
15261;SDS011;7733;51.554;13.590;2023-08-20T10:27:28;7.70;;;7.10;;
15261;SDS011;7733;51.554;13.590;2023-08-20T10:29:59;7.30;;;6.80;;
15261;SDS011;7733;51.554;13.590;2023-08-20T10:35:27;7.40;;;6.90;;
15261;SDS011;7733;51.554;13.590;2023-08-20T10:38:11;6.33;;;5.83;;
15261;SDS011;7733;51.554;13.590;2023-08-20T10:40:56;6.10;;;5.70;;
15261;SDS011;7733;51.554;13.590;2023-08-20T10:43:33;6.10;;;5.80;;
15261;SDS011;7733;51.554;13.590;2023-08-20T10:46:04;5.80;;;5.50;;
15261;SDS011;7733;51.554;13.590;2023-08-20T10:48:34;6.50;;;6.20;;
15261;SDS011;7733;51.554;13.590;2023-08-20T10:51:06;6.20;;;5.90;;
15261;SDS011;7733;51.554;13.590;2023-08-20T10:53:33;5.37;;;4.97;;
15261;SDS011;7733;51.554;13.590;2023-08-20T10:56:10;6.50;;;6.10;;
15261;SDS011;7733;51.554;13.590;2023-08-20T10:58:41;6.70;;;6.30;;
15261;SDS011;7733;51.554;13.590;2023-08-20T11:01:22;6.43;;;6.03;;
15261;SDS011;7733;51.554;13.590;2023-08-20T11:03:49;6.13;;;5.77;;
15261;SDS011;7733;51.554;13.590;2023-08-20T11:06:16;6.13;;;5.60;;
15261;SDS011;7733;51.554;13.590;2023-08-20T11:08:43;5.93;;;5.43;;
15261;SDS011;7733;51.554;13.590;2023-08-20T11:11:10;6.03;;;5.63;;
15261;SDS011;7733;51.554;13.590;2023-08-20T11:13:36;6.33;;;5.93;;
15261;SDS011;7733;51.554;13.590;2023-08-20T11:16:02;6.23;;;5.83;;
15261;SDS011;7733;51.554;13.590;2023-08-20T11:18:30;5.83;;;5.53;;
15261;SDS011;7733;51.554;13.590;2023-08-20T11:20:59;6.30;;;5.90;;
15261;SDS011;7733;51.554;13.590;2023-08-20T11:23:25;6.00;;;5.57;;
15261;SDS011;7733;51.554;13.590;2023-08-20T11:25:52;5.47;;;5.07;;
15261;SDS011;7733;51.554;13.590;2023-08-20T11:28:18;5.20;;;4.83;;
15261;SDS011;7733;51.554;13.590;2023-08-20T11:30:45;4.97;;;4.67;;
15261;SDS011;7733;51.554;13.590;2023-08-20T11:33:12;4.87;;;4.63;;
15261;SDS011;7733;51.554;13.590;2023-08-20T11:35:38;4.90;;;4.70;;
15261;SDS011;7733;51.554;13.590;2023-08-20T11:38:06;4.53;;;4.33;;
15261;SDS011;7733;51.554;13.590;2023-08-20T11:40:32;4.73;;;4.43;;
15261;SDS011;7733;51.554;13.590;2023-08-20T11:42:57;4.70;;;4.50;;
15261;SDS011;7733;51.554;13.590;2023-08-20T11:45:23;4.80;;;4.50;;
15261;SDS011;7733;51.554;13.590;2023-08-20T11:47:49;4.93;;;4.63;;
15261;SDS011;7733;51.554;13.590;2023-08-20T11:50:21;4.87;;;4.57;;
15261;SDS011;7733;51.554;13.590;2023-08-20T11:52:47;4.80;;;4.43;;
15261;SDS011;7733;51.554;13.590;2023-08-20T11:55:12;5.07;;;4.77;;
15261;SDS011;7733;51.554;13.590;2023-08-20T11:57:38;4.30;;;4.10;;
15261;SDS011;7733;51.554;13.590;2023-08-20T12:00:04;4.80;;;4.60;;
15261;SDS011;7733;51.554;13.590;2023-08-20T12:02:38;4.80;;;4.60;;
15261;SDS011;7733;51.554;13.590;2023-08-20T12:05:07;4.40;;;4.20;;
15261;SDS011;7733;51.554;13.590;2023-08-20T12:07:33;4.73;;;4.50;;
15261;SDS011;7733;51.554;13.590;2023-08-20T12:10:04;5.27;;;4.87;;
15261;SDS011;7733;51.554;13.590;2023-08-20T12:12:49;4.57;;;4.23;;
15261;SDS011;7733;51.554;13.590;2023-08-20T12:15:15;4.93;;;4.63;;
15261;SDS011;7733;51.554;13.590;2023-08-20T12:17:42;5.30;;;4.90;;
15261;SDS011;7733;51.554;13.590;2023-08-20T12:20:08;4.83;;;4.40;;
15261;SDS011;7733;51.554;13.590;2023-08-20T12:22:40;4.70;;;4.40;;
15261;SDS011;7733;51.554;13.590;2023-08-20T12:25:06;5.07;;;4.60;;
15261;SDS011;7733;51.554;13.590;2023-08-20T12:27:32;4.53;;;4.27;;
15261;SDS011;7733;51.554;13.590;2023-08-20T12:29:59;5.07;;;4.77;;
15261;SDS011;7733;51.554;13.590;2023-08-20T12:32:25;4.63;;;4.43;;
15261;SDS011;7733;51.554;13.590;2023-08-20T12:34:50;5.53;;;5.07;;
15261;SDS011;7733;51.554;13.590;2023-08-20T12:37:16;5.03;;;4.73;;
15261;SDS011;7733;51.554;13.590;2023-08-20T12:39:42;5.10;;;4.70;;
15261;SDS011;7733;51.554;13.590;2023-08-20T12:42:07;5.20;;;4.70;;
15261;SDS011;7733;51.554;13.590;2023-08-20T12:44:33;4.60;;;4.40;;
15261;SDS011;7733;51.554;13.590;2023-08-20T12:46:59;4.70;;;4.30;;
15261;SDS011;7733;51.554;13.590;2023-08-20T12:49:24;4.93;;;4.63;;
15261;SDS011;7733;51.554;13.590;2023-08-20T12:51:50;4.77;;;4.47;;
15261;SDS011;7733;51.554;13.590;2023-08-20T12:54:16;4.80;;;4.40;;
15261;SDS011;7733;51.554;13.590;2023-08-20T12:56:42;4.80;;;4.50;;
15261;SDS011;7733;51.554;13.590;2023-08-20T12:59:07;4.93;;;4.50;;
15261;SDS011;7733;51.554;13.590;2023-08-20T13:01:33;3.97;;;3.77;;
15261;SDS011;7733;51.554;13.590;2023-08-20T13:03:59;4.20;;;4.00;;
15261;SDS011;7733;51.554;13.590;2023-08-20T13:06:25;4.50;;;4.20;;
15261;SDS011;7733;51.554;13.590;2023-08-20T13:08:51;4.17;;;4.00;;
15261;SDS011;7733;51.554;13.590;2023-08-20T13:11:17;4.47;;;4.27;;
15261;SDS011;7733;51.554;13.590;2023-08-20T13:13:48;4.57;;;4.20;;
15261;SDS011;7733;51.554;13.590;2023-08-20T13:16:14;4.27;;;4.07;;
15261;SDS011;7733;51.554;13.590;2023-08-20T13:18:40;4.23;;;3.93;;
15261;SDS011;7733;51.554;13.590;2023-08-20T13:21:06;4.10;;;3.90;;
15261;SDS011;7733;51.554;13.590;2023-08-20T13:23:33;4.47;;;4.17;;
15261;SDS011;7733;51.554;13.590;2023-08-20T13:25:59;3.80;;;3.60;;
15261;SDS011;7733;51.554;13.590;2023-08-20T13:28:24;4.23;;;3.80;;
15261;SDS011;7733;51.554;13.590;2023-08-20T13:30:50;4.20;;;4.00;;
15261;SDS011;7733;51.554;13.590;2023-08-20T13:33:16;4.47;;;4.17;;
15261;SDS011;7733;51.554;13.590;2023-08-20T13:35:42;4.10;;;3.83;;
15261;SDS011;7733;51.554;13.590;2023-08-20T13:38:07;4.00;;;3.80;;
15261;SDS011;7733;51.554;13.590;2023-08-20T13:40:33;4.20;;;3.90;;
15261;SDS011;7733;51.554;13.590;2023-08-20T13:42:59;4.20;;;3.90;;
15261;SDS011;7733;51.554;13.590;2023-08-20T13:45:25;3.80;;;3.60;;
15261;SDS011;7733;51.554;13.590;2023-08-20T13:47:50;3.73;;;3.43;;
15261;SDS011;7733;51.554;13.590;2023-08-20T13:50:16;3.70;;;3.53;;
15261;SDS011;7733;51.554;13.590;2023-08-20T13:52:42;4.07;;;3.80;;
15261;SDS011;7733;51.554;13.590;2023-08-20T13:55:07;3.90;;;3.70;;
15261;SDS011;7733;51.554;13.590;2023-08-20T13:57:34;3.83;;;3.50;;
15261;SDS011;7733;51.554;13.590;2023-08-20T13:59:59;3.83;;;3.57;;
15261;SDS011;7733;51.554;13.590;2023-08-20T14:02:28;9.50;;;4.00;;
15261;SDS011;7733;51.554;13.590;2023-08-20T14:04:53;3.60;;;3.40;;
15261;SDS011;7733;51.554;13.590;2023-08-20T14:07:19;3.77;;;3.63;;
15261;SDS011;7733;51.554;13.590;2023-08-20T14:09:45;3.93;;;3.63;;
15261;SDS011;7733;51.554;13.590;2023-08-20T14:12:11;5.10;;;3.77;;
15261;SDS011;7733;51.554;13.590;2023-08-20T14:14:36;4.00;;;3.70;;
15261;SDS011;7733;51.554;13.590;2023-08-20T14:17:02;3.63;;;3.33;;
15261;SDS011;7733;51.554;13.590;2023-08-20T14:19:28;4.10;;;3.70;;
15261;SDS011;7733;51.554;13.590;2023-08-20T14:21:53;3.30;;;3.20;;
15261;SDS011;7733;51.554;13.590;2023-08-20T14:24:19;3.10;;;3.00;;
15261;SDS011;7733;51.554;13.590;2023-08-20T14:26:45;3.10;;;2.90;;
15261;SDS011;7733;51.554;13.590;2023-08-20T14:29:10;3.30;;;3.10;;
15261;SDS011;7733;51.554;13.590;2023-08-20T14:31:36;3.27;;;3.17;;
15261;SDS011;7733;51.554;13.590;2023-08-20T14:34:02;3.50;;;3.23;;
15261;SDS011;7733;51.554;13.590;2023-08-20T14:36:28;3.47;;;3.27;;
15261;SDS011;7733;51.554;13.590;2023-08-20T14:38:54;3.00;;;2.90;;
15261;SDS011;7733;51.554;13.590;2023-08-20T14:41:20;3.10;;;3.00;;
15261;SDS011;7733;51.554;13.590;2023-08-20T14:43:45;2.97;;;2.87;;
15261;SDS011;7733;51.554;13.590;2023-08-20T14:46:11;3.17;;;2.97;;
15261;SDS011;7733;51.554;13.590;2023-08-20T14:48:37;2.60;;;2.50;;
15261;SDS011;7733;51.554;13.590;2023-08-20T14:51:06;2.87;;;2.67;;
15261;SDS011;7733;51.554;13.590;2023-08-20T14:53:32;2.60;;;2.50;;
15261;SDS011;7733;51.554;13.590;2023-08-20T14:55:57;2.60;;;2.50;;
15261;SDS011;7733;51.554;13.590;2023-08-20T14:58:23;3.07;;;2.93;;